sensor_id;sensor_type;location;lat;lon;timestamp;pressure;altitude;pressure_sealevel;temperature;humidity
13767;BME280;47980;48.794;9.176;2023-04-12T00:01:33;97752.72;;;10.96;57.94
13767;BME280;47980;48.794;9.176;2023-04-12T00:04:05;97751.53;;;10.94;58.89
13767;BME280;47980;48.794;9.176;2023-04-12T00:06:36;97752.72;;;10.96;58.22
13767;BME280;47980;48.794;9.176;2023-04-12T00:09:09;97745.34;;;10.90;58.11
13767;BME280;47980;48.794;9.176;2023-04-12T00:11:40;97733.72;;;10.82;59.26
13767;BME280;47980;48.794;9.176;2023-04-12T00:14:13;97735.19;;;10.79;59.04
13767;BME280;47980;48.794;9.176;2023-04-12T00:16:45;97736.38;;;10.82;58.59
13767;BME280;47980;48.794;9.176;2023-04-12T00:19:17;97735.97;;;10.80;59.31
13767;BME280;47980;48.794;9.176;2023-04-12T00:21:48;97729.75;;;10.88;59.74
13767;BME280;47980;48.794;9.176;2023-04-12T00:24:20;97729.34;;;10.74;60.94
13767;BME280;47980;48.794;9.176;2023-04-12T00:26:51;97725.16;;;10.73;61.38
13767;BME280;47980;48.794;9.176;2023-04-12T00:29:24;97721.28;;;10.70;62.52
13767;BME280;47980;48.794;9.176;2023-04-12T00:31:56;97717.44;;;10.68;63.33
13767;BME280;47980;48.794;9.176;2023-04-12T00:34:29;97720.41;;;10.66;64.13
13767;BME280;47980;48.794;9.176;2023-04-12T00:37:01;97717.00;;;10.53;65.18
13767;BME280;47980;48.794;9.176;2023-04-12T00:39:32;97717.66;;;10.38;65.52
13767;BME280;47980;48.794;9.176;2023-04-12T00:42:04;97723.31;;;10.36;68.71
13767;BME280;47980;48.794;9.176;2023-04-12T00:44:37;97711.72;;;10.29;70.67
13767;BME280;47980;48.794;9.176;2023-04-12T00:47:09;97720.06;;;10.06;72.52
13767;BME280;47980;48.794;9.176;2023-04-12T00:49:41;97709.13;;;9.96;76.03
13767;BME280;47980;48.794;9.176;2023-04-12T00:52:12;97705.94;;;10.02;77.04
13767;BME280;47980;48.794;9.176;2023-04-12T00:54:44;97696.22;;;10.06;77.59
13767;BME280;47980;48.794;9.176;2023-04-12T00:57:16;97694.88;;;10.12;77.69
13767;BME280;47980;48.794;9.176;2023-04-12T00:59:49;97690.03;;;10.15;79.79
13767;BME280;47980;48.794;9.176;2023-04-12T01:02:21;97689.81;;;10.07;80.49
13767;BME280;47980;48.794;9.176;2023-04-12T01:04:53;97696.53;;;10.05;81.37
13767;BME280;47980;48.794;9.176;2023-04-12T01:07:34;97693.88;;;9.80;83.39
13767;BME280;47980;48.794;9.176;2023-04-12T01:10:25;97687.91;;;9.83;83.64
13767;BME280;47980;48.794;9.176;2023-04-12T01:13:04;97683.06;;;9.85;83.56
13767;BME280;47980;48.794;9.176;2023-04-12T01:15:47;97673.78;;;9.92;83.66
13767;BME280;47980;48.794;9.176;2023-04-12T01:18:24;97682.06;;;9.78;85.78
13767;BME280;47980;48.794;9.176;2023-04-12T01:21:04;97681.06;;;9.82;84.00
13767;BME280;47980;48.794;9.176;2023-04-12T01:23:50;97675.19;;;9.64;86.17
13767;BME280;47980;48.794;9.176;2023-04-12T01:26:33;97670.88;;;9.72;86.87
13767;BME280;47980;48.794;9.176;2023-04-12T01:29:10;97671.66;;;9.73;88.42
13767;BME280;47980;48.794;9.176;2023-04-12T01:31:49;97662.94;;;9.72;86.93
13767;BME280;47980;48.794;9.176;2023-04-12T01:34:24;97662.81;;;9.69;89.22
13767;BME280;47980;48.794;9.176;2023-04-12T01:36:58;97665.28;;;9.74;89.46
13767;BME280;47980;48.794;9.176;2023-04-12T01:39:32;97660.50;;;9.67;90.03
13767;BME280;47980;48.794;9.176;2023-04-12T01:42:04;97657.22;;;9.70;89.79
13767;BME280;47980;48.794;9.176;2023-04-12T01:44:37;97653.88;;;9.61;90.35
13767;BME280;47980;48.794;9.176;2023-04-12T01:47:08;97644.41;;;9.72;91.73
13767;BME280;47980;48.794;9.176;2023-04-12T01:49:46;97642.41;;;9.69;93.09
13767;BME280;47980;48.794;9.176;2023-04-12T01:52:21;97628.75;;;9.67;93.51
13767;BME280;47980;48.794;9.176;2023-04-12T01:54:56;97628.50;;;9.60;94.17
13767;BME280;47980;48.794;9.176;2023-04-12T01:57:30;97625.09;;;9.59;93.22
13767;BME280;47980;48.794;9.176;2023-04-12T02:00:06;97619.22;;;9.42;93.75
13767;BME280;47980;48.794;9.176;2023-04-12T02:02:40;97616.22;;;9.43;94.96
13767;BME280;47980;48.794;9.176;2023-04-12T02:05:11;97610.41;;;9.50;95.84
13767;BME280;47980;48.794;9.176;2023-04-12T02:07:43;97612.28;;;9.49;95.83
13767;BME280;47980;48.794;9.176;2023-04-12T02:10:26;97602.34;;;9.58;95.22
13767;BME280;47980;48.794;9.176;2023-04-12T02:12:58;97593.50;;;9.54;94.91
13767;BME280;47980;48.794;9.176;2023-04-12T02:15:31;97585.03;;;9.49;95.92
13767;BME280;47980;48.794;9.176;2023-04-12T02:18:03;97583.16;;;9.49;96.71
13767;BME280;47980;48.794;9.176;2023-04-12T02:20:35;97583.38;;;9.44;98.14
13767;BME280;47980;48.794;9.176;2023-04-12T02:23:06;97579.81;;;9.40;98.60
13767;BME280;47980;48.794;9.176;2023-04-12T02:25:38;97572.00;;;9.44;98.51
13767;BME280;47980;48.794;9.176;2023-04-12T02:28:10;97569.81;;;9.46;98.81
13767;BME280;47980;48.794;9.176;2023-04-12T02:30:43;97565.94;;;9.31;99.24
13767;BME280;47980;48.794;9.176;2023-04-12T02:33:14;97558.75;;;9.31;100.00
13767;BME280;47980;48.794;9.176;2023-04-12T02:35:46;97559.63;;;9.35;99.12
13767;BME280;47980;48.794;9.176;2023-04-12T02:38:17;97560.53;;;9.39;98.68
13767;BME280;47980;48.794;9.176;2023-04-12T02:40:49;97542.44;;;9.42;99.06
13767;BME280;47980;48.794;9.176;2023-04-12T02:43:20;97548.06;;;9.52;99.00
13767;BME280;47980;48.794;9.176;2023-04-12T02:45:53;97546.75;;;9.46;100.00
13767;BME280;47980;48.794;9.176;2023-04-12T02:48:25;97536.63;;;9.48;100.00
13767;BME280;47980;48.794;9.176;2023-04-12T02:50:56;97533.72;;;9.53;100.00
13767;BME280;47980;48.794;9.176;2023-04-12T02:53:28;97530.09;;;9.58;100.00
13767;BME280;47980;48.794;9.176;2023-04-12T02:55:59;97528.00;;;9.63;100.00
13767;BME280;47980;48.794;9.176;2023-04-12T02:58:32;97526.34;;;9.59;100.00
13767;BME280;47980;48.794;9.176;2023-04-12T03:01:05;97522.03;;;9.67;100.00
13767;BME280;47980;48.794;9.176;2023-04-12T03:03:37;97506.72;;;9.48;100.00
13767;BME280;47980;48.794;9.176;2023-04-12T03:06:09;97508.78;;;9.54;100.00
13767;BME280;47980;48.794;9.176;2023-04-12T03:08:41;97501.88;;;9.37;100.00
13767;BME280;47980;48.794;9.176;2023-04-12T03:11:12;97495.25;;;9.19;100.00
13767;BME280;47980;48.794;9.176;2023-04-12T03:13:44;97481.66;;;9.21;100.00
13767;BME280;47980;48.794;9.176;2023-04-12T03:16:21;97478.25;;;9.20;100.00
13767;BME280;47980;48.794;9.176;2023-04-12T03:18:53;97474.94;;;9.11;100.00
13767;BME280;47980;48.794;9.176;2023-04-12T03:21:25;97460.63;;;9.24;100.00
13767;BME280;47980;48.794;9.176;2023-04-12T03:23:58;97470.19;;;9.29;100.00
13767;BME280;47980;48.794;9.176;2023-04-12T03:26:30;97462.28;;;9.16;100.00
13767;BME280;47980;48.794;9.176;2023-04-12T03:29:02;97452.09;;;9.19;100.00
13767;BME280;47980;48.794;9.176;2023-04-12T03:31:38;97446.63;;;9.11;100.00
13767;BME280;47980;48.794;9.176;2023-04-12T03:34:10;97447.38;;;9.24;100.00
13767;BME280;47980;48.794;9.176;2023-04-12T03:36:41;97440.22;;;9.25;100.00
13767;BME280;47980;48.794;9.176;2023-04-12T03:39:13;97437.56;;;9.37;100.00
13767;BME280;47980;48.794;9.176;2023-04-12T03:41:44;97439.84;;;9.51;100.00
13767;BME280;47980;48.794;9.176;2023-04-12T03:44:17;97440.09;;;9.46;100.00
13767;BME280;47980;48.794;9.176;2023-04-12T03:46:50;97432.25;;;9.49;100.00
13767;BME280;47980;48.794;9.176;2023-04-12T03:49:21;97430.13;;;9.55;100.00
13767;BME280;47980;48.794;9.176;2023-04-12T03:51:53;97424.13;;;9.30;100.00
13767;BME280;47980;48.794;9.176;2023-04-12T03:54:26;97419.59;;;9.30;100.00
13767;BME280;47980;48.794;9.176;2023-04-12T03:56:57;97417.28;;;9.16;100.00
13767;BME280;47980;48.794;9.176;2023-04-12T03:59:29;97413.53;;;9.18;100.00
13767;BME280;47980;48.794;9.176;2023-04-12T04:02:03;97410.75;;;9.38;100.00
13767;BME280;47980;48.794;9.176;2023-04-12T04:04:35;97405.06;;;9.12;100.00
13767;BME280;47980;48.794;9.176;2023-04-12T04:07:07;97399.66;;;9.08;100.00
13767;BME280;47980;48.794;9.176;2023-04-12T04:09:38;97399.66;;;9.08;100.00
13767;BME280;47980;48.794;9.176;2023-04-12T04:12:10;97399.31;;;9.10;100.00
13767;BME280;47980;48.794;9.176;2023-04-12T04:14:41;97398.09;;;9.07;100.00
13767;BME280;47980;48.794;9.176;2023-04-12T04:17:14;97395.44;;;9.07;100.00
13767;BME280;47980;48.794;9.176;2023-04-12T04:19:46;97387.19;;;9.21;100.00
13767;BME280;47980;48.794;9.176;2023-04-12T04:22:17;97376.94;;;9.07;100.00
13767;BME280;47980;48.794;9.176;2023-04-12T04:24:50;97371.31;;;9.09;100.00
13767;BME280;47980;48.794;9.176;2023-04-12T04:27:22;97369.00;;;9.07;100.00
13767;BME280;47980;48.794;9.176;2023-04-12T04:29:53;97363.72;;;8.95;100.00
13767;BME280;47980;48.794;9.176;2023-04-12T04:32:28;97361.19;;;8.99;100.00
13767;BME280;47980;48.794;9.176;2023-04-12T04:35:00;97356.44;;;8.67;100.00
13767;BME280;47980;48.794;9.176;2023-04-12T04:37:32;97357.31;;;8.59;100.00
13767;BME280;47980;48.794;9.176;2023-04-12T04:40:06;97357.97;;;8.56;100.00
13767;BME280;47980;48.794;9.176;2023-04-12T04:42:38;97350.84;;;8.81;100.00
13767;BME280;47980;48.794;9.176;2023-04-12T04:45:12;97347.41;;;8.93;100.00
13767;BME280;47980;48.794;9.176;2023-04-12T04:47:45;97354.13;;;9.03;100.00
13767;BME280;47980;48.794;9.176;2023-04-12T04:50:16;97353.81;;;9.04;100.00
13767;BME280;47980;48.794;9.176;2023-04-12T04:52:48;97346.41;;;9.10;100.00
13767;BME280;47980;48.794;9.176;2023-04-12T04:55:20;97346.84;;;9.12;100.00
13767;BME280;47980;48.794;9.176;2023-04-12T04:57:51;97342.44;;;9.16;100.00
13767;BME280;47980;48.794;9.176;2023-04-12T05:00:23;97347.28;;;9.26;100.00
13767;BME280;47980;48.794;9.176;2023-04-12T05:02:59;97344.47;;;9.35;100.00
13767;BME280;47980;48.794;9.176;2023-04-12T05:05:31;97351.31;;;9.36;100.00
13767;BME280;47980;48.794;9.176;2023-04-12T05:08:02;97344.69;;;9.42;100.00
13767;BME280;47980;48.794;9.176;2023-04-12T05:10:35;97345.34;;;9.39;100.00
13767;BME280;47980;48.794;9.176;2023-04-12T05:13:08;97336.31;;;9.40;100.00
13767;BME280;47980;48.794;9.176;2023-04-12T05:15:40;97342.72;;;9.39;100.00
13767;BME280;47980;48.794;9.176;2023-04-12T05:18:14;97344.19;;;9.24;100.00
13767;BME280;47980;48.794;9.176;2023-04-12T05:20:47;97337.22;;;9.32;100.00
13767;BME280;47980;48.794;9.176;2023-04-12T05:23:19;97335.44;;;9.36;100.00
13767;BME280;47980;48.794;9.176;2023-04-12T05:25:51;97323.34;;;9.23;100.00
13767;BME280;47980;48.794;9.176;2023-04-12T05:28:24;97326.72;;;9.35;100.00
13767;BME280;47980;48.794;9.176;2023-04-12T05:30:55;97316.69;;;9.41;100.00
13767;BME280;47980;48.794;9.176;2023-04-12T05:33:28;97316.44;;;9.46;100.00
13767;BME280;47980;48.794;9.176;2023-04-12T05:36:01;97310.28;;;9.42;100.00
13767;BME280;47980;48.794;9.176;2023-04-12T05:38:32;97301.41;;;9.50;100.00
13767;BME280;47980;48.794;9.176;2023-04-12T05:41:04;97304.53;;;9.40;100.00
13767;BME280;47980;48.794;9.176;2023-04-12T05:43:36;97298.66;;;9.59;100.00
13767;BME280;47980;48.794;9.176;2023-04-12T05:46:07;97292.72;;;9.50;100.00
13767;BME280;47980;48.794;9.176;2023-04-12T05:48:41;97287.25;;;9.58;100.00
13767;BME280;47980;48.794;9.176;2023-04-12T05:51:13;97278.44;;;9.54;100.00
13767;BME280;47980;48.794;9.176;2023-04-12T05:53:44;97265.66;;;9.56;100.00
13767;BME280;47980;48.794;9.176;2023-04-12T05:56:16;97262.34;;;9.59;100.00
13767;BME280;47980;48.794;9.176;2023-04-12T05:58:47;97267.47;;;9.68;100.00
13767;BME280;47980;48.794;9.176;2023-04-12T06:01:19;97258.84;;;9.55;100.00
13767;BME280;47980;48.794;9.176;2023-04-12T06:03:52;97245.69;;;9.59;100.00
13767;BME280;47980;48.794;9.176;2023-04-12T06:06:23;97246.16;;;9.77;100.00
13767;BME280;47980;48.794;9.176;2023-04-12T06:08:59;97251.94;;;9.82;100.00
13767;BME280;47980;48.794;9.176;2023-04-12T06:11:31;97241.75;;;9.53;100.00
13767;BME280;47980;48.794;9.176;2023-04-12T06:14:03;97236.31;;;9.33;100.00
13767;BME280;47980;48.794;9.176;2023-04-12T06:16:35;97226.44;;;9.46;100.00
13767;BME280;47980;48.794;9.176;2023-04-12T06:19:08;97226.44;;;9.46;100.00
13767;BME280;47980;48.794;9.176;2023-04-12T06:21:40;97229.44;;;9.45;100.00
13767;BME280;47980;48.794;9.176;2023-04-12T06:24:12;97225.50;;;9.54;100.00
13767;BME280;47980;48.794;9.176;2023-04-12T06:26:43;97222.38;;;9.64;100.00
13767;BME280;47980;48.794;9.176;2023-04-12T06:29:16;97208.63;;;9.75;100.00
13767;BME280;47980;48.794;9.176;2023-04-12T06:31:48;97207.78;;;10.02;98.45
13767;BME280;47980;48.794;9.176;2023-04-12T06:34:21;97212.03;;;9.91;98.11
13767;BME280;47980;48.794;9.176;2023-04-12T06:36:52;97196.16;;;10.07;98.69
13767;BME280;47980;48.794;9.176;2023-04-12T06:39:24;97194.28;;;10.07;98.44
13767;BME280;47980;48.794;9.176;2023-04-12T06:41:55;97183.31;;;10.25;100.00
13767;BME280;47980;48.794;9.176;2023-04-12T06:44:27;97185.72;;;10.30;100.00
13767;BME280;47980;48.794;9.176;2023-04-12T06:46:59;97185.03;;;10.01;100.00
13767;BME280;47980;48.794;9.176;2023-04-12T06:49:32;97171.97;;;10.08;100.00
13767;BME280;47980;48.794;9.176;2023-04-12T06:52:03;97167.50;;;10.12;100.00
13767;BME280;47980;48.794;9.176;2023-04-12T06:54:35;97172.06;;;10.28;100.00
13767;BME280;47980;48.794;9.176;2023-04-12T06:57:08;97162.88;;;10.41;100.00
13767;BME280;47980;48.794;9.176;2023-04-12T06:59:40;97168.69;;;10.31;100.00
13767;BME280;47980;48.794;9.176;2023-04-12T07:02:11;97159.47;;;10.09;99.23
13767;BME280;47980;48.794;9.176;2023-04-12T07:04:44;97148.38;;;10.03;100.00
13767;BME280;47980;48.794;9.176;2023-04-12T07:07:16;97140.47;;;10.23;99.64
13767;BME280;47980;48.794;9.176;2023-04-12T07:09:47;97144.75;;;10.43;100.00
13767;BME280;47980;48.794;9.176;2023-04-12T07:12:20;97143.75;;;10.32;99.73
13767;BME280;47980;48.794;9.176;2023-04-12T07:14:52;97128.75;;;10.40;100.00
13767;BME280;47980;48.794;9.176;2023-04-12T07:17:23;97123.69;;;10.50;100.00
13767;BME280;47980;48.794;9.176;2023-04-12T07:19:57;97120.13;;;10.62;97.98
13767;BME280;47980;48.794;9.176;2023-04-12T07:22:29;97111.69;;;10.76;96.62
13767;BME280;47980;48.794;9.176;2023-04-12T07:25:00;97107.22;;;10.60;97.53
13767;BME280;47980;48.794;9.176;2023-04-12T07:27:34;97108.34;;;10.79;96.93
13767;BME280;47980;48.794;9.176;2023-04-12T07:30:06;97102.06;;;10.68;98.45
13767;BME280;47980;48.794;9.176;2023-04-12T07:32:39;97099.13;;;10.73;97.85
13767;BME280;47980;48.794;9.176;2023-04-12T07:35:11;97093.13;;;10.76;97.10
13767;BME280;47980;48.794;9.176;2023-04-12T07:37:43;97084.28;;;10.91;97.14
13767;BME280;47980;48.794;9.176;2023-04-12T07:40:15;97073.16;;;10.63;96.95
13767;BME280;47980;48.794;9.176;2023-04-12T07:42:46;97060.66;;;10.63;98.31
13767;BME280;47980;48.794;9.176;2023-04-12T07:45:18;97053.47;;;10.83;96.26
13767;BME280;47980;48.794;9.176;2023-04-12T07:47:50;97048.56;;;10.85;97.25
13767;BME280;47980;48.794;9.176;2023-04-12T07:50:23;97027.81;;;10.91;96.39
13767;BME280;47980;48.794;9.176;2023-04-12T07:52:58;97031.88;;;10.84;94.85
13767;BME280;47980;48.794;9.176;2023-04-12T07:55:47;97015.25;;;11.11;94.65
13767;BME280;47980;48.794;9.176;2023-04-12T07:58:20;97021.56;;;11.25;94.79
13767;BME280;47980;48.794;9.176;2023-04-12T08:00:52;97018.31;;;11.13;94.79
13767;BME280;47980;48.794;9.176;2023-04-12T08:03:23;97012.19;;;11.08;93.91
13767;BME280;47980;48.794;9.176;2023-04-12T08:05:56;97009.53;;;11.31;92.26
13767;BME280;47980;48.794;9.176;2023-04-12T08:08:28;97011.72;;;11.26;92.84
13767;BME280;47980;48.794;9.176;2023-04-12T08:11:00;97020.56;;;11.60;90.12
13767;BME280;47980;48.794;9.176;2023-04-12T08:13:33;97008.09;;;11.15;91.49
13767;BME280;47980;48.794;9.176;2023-04-12T08:16:05;97015.31;;;11.14;93.41
13767;BME280;47980;48.794;9.176;2023-04-12T08:18:37;97010.22;;;11.28;93.01
13767;BME280;47980;48.794;9.176;2023-04-12T08:21:10;97013.50;;;10.95;95.57
13767;BME280;47980;48.794;9.176;2023-04-12T08:23:41;97002.41;;;11.13;95.68
13767;BME280;47980;48.794;9.176;2023-04-12T08:26:13;97008.84;;;11.12;93.33
13767;BME280;47980;48.794;9.176;2023-04-12T08:28:45;97007.28;;;11.11;94.22
13767;BME280;47980;48.794;9.176;2023-04-12T08:31:16;96996.06;;;11.21;93.81
13767;BME280;47980;48.794;9.176;2023-04-12T08:33:48;96995.31;;;11.20;94.68
13767;BME280;47980;48.794;9.176;2023-04-12T08:36:21;96996.03;;;11.17;93.80
13767;BME280;47980;48.794;9.176;2023-04-12T08:38:52;96994.50;;;11.43;94.44
13767;BME280;47980;48.794;9.176;2023-04-12T08:41:25;96998.66;;;11.40;94.60
13767;BME280;47980;48.794;9.176;2023-04-12T08:43:58;97002.63;;;11.27;93.56
13767;BME280;47980;48.794;9.176;2023-04-12T08:46:29;96998.56;;;11.33;94.64
13767;BME280;47980;48.794;9.176;2023-04-12T08:49:01;97008.31;;;11.52;95.22
13767;BME280;47980;48.794;9.176;2023-04-12T08:51:34;97000.75;;;11.54;94.40
13767;BME280;47980;48.794;9.176;2023-04-12T08:54:07;96996.00;;;11.67;93.86
13767;BME280;47980;48.794;9.176;2023-04-12T08:56:40;96983.25;;;11.79;92.86
13767;BME280;47980;48.794;9.176;2023-04-12T08:59:14;96984.75;;;12.03;91.85
13767;BME280;47980;48.794;9.176;2023-04-12T09:01:45;96982.19;;;11.57;91.15
13767;BME280;47980;48.794;9.176;2023-04-12T09:04:17;96975.19;;;11.72;92.58
13767;BME280;47980;48.794;9.176;2023-04-12T09:06:52;96987.16;;;11.86;92.64
13767;BME280;47980;48.794;9.176;2023-04-12T09:09:49;96973.28;;;11.69;92.28
13767;BME280;47980;48.794;9.176;2023-04-12T09:12:21;96968.88;;;11.80;94.10
13767;BME280;47980;48.794;9.176;2023-04-12T09:15:08;96957.28;;;11.92;94.50
13767;BME280;47980;48.794;9.176;2023-04-12T09:17:41;96955.41;;;11.96;93.87
13767;BME280;47980;48.794;9.176;2023-04-12T09:20:22;96954.97;;;11.91;95.62
13767;BME280;47980;48.794;9.176;2023-04-12T09:22:56;96943.38;;;12.06;96.18
13767;BME280;47980;48.794;9.176;2023-04-12T09:25:38;96945.94;;;11.95;94.22
13767;BME280;47980;48.794;9.176;2023-04-12T09:28:17;96944.00;;;12.29;93.31
13767;BME280;47980;48.794;9.176;2023-04-12T09:30:51;96934.56;;;12.73;92.42
13767;BME280;47980;48.794;9.176;2023-04-12T09:33:33;96935.13;;;12.93;89.90
13767;BME280;47980;48.794;9.176;2023-04-12T09:36:06;96932.16;;;13.05;88.64
13767;BME280;47980;48.794;9.176;2023-04-12T09:38:57;96934.19;;;13.22;88.48
13767;BME280;47980;48.794;9.176;2023-04-12T09:41:29;96930.91;;;12.92;88.50
13767;BME280;47980;48.794;9.176;2023-04-12T09:44:02;96935.38;;;12.81;90.31
13767;BME280;47980;48.794;9.176;2023-04-12T09:46:34;96936.63;;;12.94;89.70
13767;BME280;47980;48.794;9.176;2023-04-12T09:49:05;96941.94;;;12.90;89.00
13767;BME280;47980;48.794;9.176;2023-04-12T09:51:37;96934.81;;;13.05;89.24
13767;BME280;47980;48.794;9.176;2023-04-12T09:54:11;96934.41;;;13.03;89.75
13767;BME280;47980;48.794;9.176;2023-04-12T09:56:43;96934.25;;;13.30;87.27
13767;BME280;47980;48.794;9.176;2023-04-12T09:59:16;96923.97;;;13.28;87.89
13767;BME280;47980;48.794;9.176;2023-04-12T10:01:49;96918.38;;;13.47;85.59
13767;BME280;47980;48.794;9.176;2023-04-12T10:04:21;96915.13;;;13.20;85.37
13767;BME280;47980;48.794;9.176;2023-04-12T10:06:53;96913.75;;;13.37;86.42
13767;BME280;47980;48.794;9.176;2023-04-12T10:09:26;96909.22;;;13.41;84.92
13767;BME280;47980;48.794;9.176;2023-04-12T10:11:59;96901.66;;;13.58;84.62
13767;BME280;47980;48.794;9.176;2023-04-12T10:14:32;96911.56;;;13.57;84.30
13767;BME280;47980;48.794;9.176;2023-04-12T10:17:04;96905.19;;;13.76;84.36
13767;BME280;47980;48.794;9.176;2023-04-12T10:19:36;96907.59;;;14.10;81.19
13767;BME280;47980;48.794;9.176;2023-04-12T10:22:09;96906.44;;;14.11;81.32
13767;BME280;47980;48.794;9.176;2023-04-12T10:24:42;96912.28;;;14.52;80.98
13767;BME280;47980;48.794;9.176;2023-04-12T10:27:23;96902.78;;;14.73;79.23
13767;BME280;47980;48.794;9.176;2023-04-12T10:30:20;96911.84;;;14.39;77.84
13767;BME280;47980;48.794;9.176;2023-04-12T10:33:11;96908.78;;;14.27;78.55
13767;BME280;47980;48.794;9.176;2023-04-12T10:35:51;96910.34;;;14.42;81.13
13767;BME280;47980;48.794;9.176;2023-04-12T10:38:24;96908.47;;;14.57;79.52
13767;BME280;47980;48.794;9.176;2023-04-12T10:41:08;96903.91;;;14.54;77.47
13767;BME280;47980;48.794;9.176;2023-04-12T10:43:40;96908.88;;;14.84;77.37
13767;BME280;47980;48.794;9.176;2023-04-12T10:46:48;96908.09;;;15.23;77.98
13767;BME280;47980;48.794;9.176;2023-04-12T10:49:22;96903.91;;;15.14;73.77
13767;BME280;47980;48.794;9.176;2023-04-12T10:52:11;96900.47;;;15.07;75.75
13767;BME280;47980;48.794;9.176;2023-04-12T10:54:43;96888.63;;;15.26;74.14
13767;BME280;47980;48.794;9.176;2023-04-12T10:57:40;96900.09;;;14.87;76.25
13767;BME280;47980;48.794;9.176;2023-04-12T11:00:14;96890.56;;;15.04;74.88
13767;BME280;47980;48.794;9.176;2023-04-12T11:03:06;96882.84;;;15.38;72.81
13767;BME280;47980;48.794;9.176;2023-04-12T11:05:57;96867.28;;;14.93;72.77
13767;BME280;47980;48.794;9.176;2023-04-12T11:08:31;96875.28;;;15.04;72.83
13767;BME280;47980;48.794;9.176;2023-04-12T11:11:04;96852.78;;;15.02;70.79
13767;BME280;47980;48.794;9.176;2023-04-12T11:13:37;96861.41;;;15.59;69.60
13767;BME280;47980;48.794;9.176;2023-04-12T11:16:10;96857.25;;;15.51;68.49
13767;BME280;47980;48.794;9.176;2023-04-12T11:18:46;96855.72;;;15.43;71.12
13767;BME280;47980;48.794;9.176;2023-04-12T11:21:18;96860.94;;;15.86;70.00
13767;BME280;47980;48.794;9.176;2023-04-12T11:23:50;96856.56;;;15.26;71.44
13767;BME280;47980;48.794;9.176;2023-04-12T11:26:23;96843.16;;;15.36;71.93
13767;BME280;47980;48.794;9.176;2023-04-12T11:28:55;96828.19;;;15.53;70.08
13767;BME280;47980;48.794;9.176;2023-04-12T11:31:28;96845.72;;;15.72;69.64
13767;BME280;47980;48.794;9.176;2023-04-12T11:34:01;96842.69;;;15.63;69.64
13767;BME280;47980;48.794;9.176;2023-04-12T11:36:32;96829.81;;;15.36;69.54
13767;BME280;47980;48.794;9.176;2023-04-12T11:39:04;96843.22;;;15.19;68.24
13767;BME280;47980;48.794;9.176;2023-04-12T11:41:36;96831.75;;;15.22;71.24
13767;BME280;47980;48.794;9.176;2023-04-12T11:44:08;96827.47;;;15.46;69.55
13767;BME280;47980;48.794;9.176;2023-04-12T11:46:40;96826.28;;;15.54;67.38
13767;BME280;47980;48.794;9.176;2023-04-12T11:49:15;96829.00;;;15.39;67.97
13767;BME280;47980;48.794;9.176;2023-04-12T11:51:47;96825.88;;;15.62;66.79
13767;BME280;47980;48.794;9.176;2023-04-12T11:54:18;96831.97;;;15.74;67.40
13767;BME280;47980;48.794;9.176;2023-04-12T11:56:50;96818.25;;;15.54;65.53
13767;BME280;47980;48.794;9.176;2023-04-12T11:59:28;96814.41;;;15.69;65.20
13767;BME280;47980;48.794;9.176;2023-04-12T12:02:01;96813.16;;;15.92;65.84
13767;BME280;47980;48.794;9.176;2023-04-12T12:04:38;96821.94;;;15.92;65.58
13767;BME280;47980;48.794;9.176;2023-04-12T12:07:10;96811.47;;;16.12;64.39
13767;BME280;47980;48.794;9.176;2023-04-12T12:09:43;96815.44;;;16.49;61.90
13767;BME280;47980;48.794;9.176;2023-04-12T12:12:16;96821.88;;;16.03;64.22
13767;BME280;47980;48.794;9.176;2023-04-12T12:14:48;96815.81;;;15.92;64.34
13767;BME280;47980;48.794;9.176;2023-04-12T12:17:20;96803.22;;;15.88;64.58
13767;BME280;47980;48.794;9.176;2023-04-12T12:19:56;96795.31;;;16.26;63.38
13767;BME280;47980;48.794;9.176;2023-04-12T12:22:27;96797.81;;;16.51;61.77
13767;BME280;47980;48.794;9.176;2023-04-12T12:24:59;96806.78;;;16.30;61.45
13767;BME280;47980;48.794;9.176;2023-04-12T12:27:33;96793.63;;;16.50;63.13
13767;BME280;47980;48.794;9.176;2023-04-12T12:30:07;96788.56;;;16.59;61.33
13767;BME280;47980;48.794;9.176;2023-04-12T12:32:40;96800.38;;;16.17;62.46
13767;BME280;47980;48.794;9.176;2023-04-12T12:35:13;96779.88;;;16.45;61.74
13767;BME280;47980;48.794;9.176;2023-04-12T12:37:49;96800.63;;;16.82;60.86
13767;BME280;47980;48.794;9.176;2023-04-12T12:40:27;96785.34;;;16.79;61.04
13767;BME280;47980;48.794;9.176;2023-04-12T12:43:01;96771.03;;;17.61;58.91
13767;BME280;47980;48.794;9.176;2023-04-12T12:45:33;96767.84;;;18.24;56.85
13767;BME280;47980;48.794;9.176;2023-04-12T12:48:05;96773.66;;;18.19;57.85
13767;BME280;47980;48.794;9.176;2023-04-12T12:50:38;96770.69;;;18.37;57.22
13767;BME280;47980;48.794;9.176;2023-04-12T12:53:10;96761.66;;;17.73;57.57
13767;BME280;47980;48.794;9.176;2023-04-12T12:55:41;96761.94;;;18.09;57.46
13767;BME280;47980;48.794;9.176;2023-04-12T12:58:13;96764.03;;;18.21;57.47
13767;BME280;47980;48.794;9.176;2023-04-12T13:00:44;96741.78;;;17.97;56.46
13767;BME280;47980;48.794;9.176;2023-04-12T13:03:16;96755.88;;;17.47;57.61
13767;BME280;47980;48.794;9.176;2023-04-12T13:05:49;96769.47;;;17.33;59.81
13767;BME280;47980;48.794;9.176;2023-04-12T13:08:21;96766.06;;;17.29;58.70
13767;BME280;47980;48.794;9.176;2023-04-12T13:10:52;96767.88;;;17.36;59.81
13767;BME280;47980;48.794;9.176;2023-04-12T13:13:25;96763.13;;;18.04;57.76
13767;BME280;47980;48.794;9.176;2023-04-12T13:15:56;96760.97;;;18.23;57.67
13767;BME280;47980;48.794;9.176;2023-04-12T13:18:28;96759.25;;;18.33;56.69
13767;BME280;47980;48.794;9.176;2023-04-12T13:21:00;96764.78;;;17.68;57.58
13767;BME280;47980;48.794;9.176;2023-04-12T13:23:32;96743.31;;;17.68;56.24
13767;BME280;47980;48.794;9.176;2023-04-12T13:26:04;96737.53;;;17.42;57.55
13767;BME280;47980;48.794;9.176;2023-04-12T13:28:36;96735.63;;;16.78;59.53
13767;BME280;47980;48.794;9.176;2023-04-12T13:31:08;96742.25;;;16.63;60.77
13767;BME280;47980;48.794;9.176;2023-04-12T13:33:39;96742.06;;;16.43;60.78